FW0812 Weather Reports


Display with metric or nautical units.
time (UTC)temp
F
wind
direction
speed
MPH
gust
MPH
rain 1hr
in
rain 24hr
in
rain mn
in
humidity
%
barometer
mb
20240717133046 79 261 0.0 1.0 0.00 0.39 0.00 81 1012.0
20240717131541 77 261 0.0 2.0 0.00 0.39 0.00 84 1012.1
20240717130043 76 265 0.0 4.0 0.00 0.39 0.00 87 1012.1
20240717124540 75 267 0.0 3.0 0.00 0.39 0.00 89 1012.0
20240717123031 74 320 0.0 3.0 0.00 0.39 0.00 92 1012.0
20240717121534 73 344 0.0 2.0 0.00 0.39 0.00 93 1012.3
20240717120024 72 216 0.0 3.0 0.00 0.39 0.00 94 1012.1
20240717114530 71 274 0.0 1.0 0.00 0.39 0.00 94 1012.0
20240717113024 71 261 0.0 2.0 0.00 0.39 0.00 94 1012.0
20240717111517 71 157 0.0 1.0 0.00 0.39 0.00 94 1011.8
20240717110015 70 95 0.0 1.0 0.00 0.39 0.00 94 1011.5
20240717104514 70 95 0.0 1.0 0.00 0.39 0.00 93 1011.3
20240717103014 70 19 0.0 1.0 0.00 0.39 0.00 93 1011.2
20240717101510 70 18 0.0 0.0 0.00 0.39 0.00 93 1010.4
20240717100010 70 321 0.0 0.0 0.00 0.39 0.00 93 1010.2
20240717094514 70 297 0.0 0.0 0.00 0.39 0.00 93 1010.4
20240717093009 70 261 0.0 0.0 0.00 0.39 0.00 93 1010.3
20240717091506 70 262 0.0 0.0 0.00 0.39 0.00 93 1010.1
20240717090004 70 262 0.0 0.0 0.00 0.39 0.00 93 1009.9
20240717084503 71 262 0.0 1.0 0.00 0.39 0.00 93 1009.9
20240717083001 71 262 0.0 1.0 0.00 0.39 0.00 93 1009.7
20240717081603 71 262 0.0 1.0 0.00 0.39 0.00 93 1009.5
20240717080058 71 265 0.0 1.0 0.00 0.39 0.00 93 1009.3
20240717074557 71 264 0.0 2.0 0.00 0.39 0.00 93 1009.2
20240717073059 71 261 0.0 2.0 0.00 0.39 0.00 93 1009.1
20240717071600 71 258 0.0 4.0 0.00 0.39 0.00 94 1009.1
20240717070056 71 290 0.0 2.0 0.00 0.39 0.00 94 1008.7
20240717064556 71 238 0.0 2.0 0.00 0.39 0.00 94 1008.5
20240717063051 71 270 0.0 1.0 0.00 0.39 0.00 94 1008.2
20240717061622 71 281 0.0 4.0 0.00 0.39 0.00 94 1008.1
20240717060103 71 260 0.0 3.0 0.00 0.39 0.00 95 1007.9
20240717054550 71 272 0.0 3.0 0.00 0.39 0.00 95 1007.6
20240717053043 71 283 0.0 3.0 0.00 0.39 0.00 95 1007.3
20240717051543 71 261 0.0 2.0 0.00 0.39 0.00 94 1007.6
20240717050038 71 261 0.0 3.0 0.00 0.39 0.00 94 1007.3
20240717044537 71 267 0.0 4.0 0.00 0.39 0.00 94 1007.3
20240717043036 71 279 0.0 2.0 0.00 0.39 0.00 94 1007.3
20240717041542 71 273 0.0 2.0 0.00 0.39 0.00 94 1007.3
20240717040036 71 307 0.0 2.0 0.00 0.39 0.00 94 1007.2
20240717034532 71 350 0.0 2.0 0.00 0.39 0.39 93 1007.1
20240717033031 72 303 0.0 2.0 0.00 0.39 0.39 93 1007.2
20240717031536 72 265 0.0 2.0 0.00 0.39 0.39 93 1007.2
20240717030044 72 287 0.0 2.0 0.01 0.39 0.39 93 1007.5
20240717024527 73 268 0.0 2.0 0.01 0.39 0.39 93 1007.8
20240717023100 73 299 1.0 5.0 0.02 0.39 0.39 92 1007.9
20240717021540 73 144 0.0 9.0 0.08 0.39 0.39 92 1008.0
20240717020023 73 223 0.0 3.0 0.08 0.38 0.38 91 1008.4
20240717014527 74 187 0.0 1.0 0.38 0.38 0.38 89 1008.6
20240717013020 74 294 0.0 1.0 0.37 0.37 0.37 87 1008.7
20240717011519 76 277 0.0 1.0 0.31 0.31 0.31 83 1009.3
20240717010017 79 277 0.0 7.0 0.30 0.30 0.30 78 1008.7
20240717004517 85 300 1.0 2.0 0.00 0.00 0.00 65 1009.5
20240717003017 87 303 0.0 1.0 0.00 0.00 0.00 63 1007.3
20240717001532 87 336 0.0 1.0 0.00 0.00 0.00 62 1006.8
20240717000016 88 213 0.0 1.0 0.00 0.00 0.00 61 1006.5
20240716234528 88 142 0.0 1.0 0.00 0.00 0.00 60 1006.5
20240716233019 89 319 0.0 1.0 0.00 0.00 0.00 59 1006.8
20240716231514 89 250 0.0 1.0 0.00 0.00 0.00 58 1006.7
20240716230015 90 281 0.0 1.0 0.00 0.00 0.00 57 1006.4
20240716224518 90 281 0.0 2.0 0.00 0.00 0.00 56 1006.3
20240716223011 90 273 0.0 1.0 0.00 0.00 0.00 54 1006.4
20240716221519 91 234 0.0 4.0 0.00 0.00 0.00 53 1006.5
20240716220018 91 9 0.0 2.0 0.00 0.00 0.00 52 1006.6
20240716214508 92 32 0.0 3.0 0.00 0.00 0.00 51 1006.6
20240716213008 92 192 0.0 2.0 0.00 0.00 0.00 50 1006.7
20240716211506 93 348 0.0 2.0 0.00 0.00 0.00 49 1006.6
20240716210005 93 5 0.0 2.0 0.00 0.00 0.00 50 1006.7
20240716204504 94 309 0.0 2.0 0.00 0.00 0.00 50 1006.7
20240716203004 95 82 0.0 3.0 0.00 0.00 0.00 49 1006.7
20240716201505 96 344 0.0 3.0 0.00 0.00 0.00 49 1006.8
20240716200058 97 5 0.0 3.0 0.00 0.00 0.00 48 1006.9
20240716194555 97 294 0.0 2.0 0.00 0.00 0.00 45 1007.2
20240716193055 96 260 0.0 1.0 0.00 0.00 0.00 46 1007.4
20240716191552 96 309 0.0 3.0 0.00 0.00 0.00 46 1007.6
20240716190049 97 287 0.0 1.0 0.00 0.00 0.00 48 1008.0
20240716184551 97 286 0.0 1.0 0.00 0.00 0.00 47 1008.2
20240716183045 97 245 0.0 1.0 0.00 0.00 0.00 47 1008.4
20240716181541 96 278 0.0 1.0 0.00 0.00 0.00 49 1008.6
20240716180039 96 271 0.0 2.0 0.00 0.00 0.00 49 1008.7
20240716174552 96 320 0.0 1.0 0.00 0.00 0.00 50 1008.6
20240716173037 94 346 0.0 3.0 0.00 0.00 0.00 52 1008.9
20240716171538 95 271 0.0 2.0 0.00 0.00 0.00 50 1008.9
20240716170033 96 278 0.0 1.0 0.00 0.00 0.00 50 1009.0
20240716164536 95 264 0.0 1.0 0.00 0.00 0.00 52 1009.1
20240716163025 93 336 0.0 1.0 0.00 0.00 0.00 53 1009.4
20240716161521 92 276 0.0 3.0 0.00 0.00 0.00 55 1009.6
20240716160018 91 271 0.0 1.0 0.00 0.00 0.00 56 1009.4
20240716154516 91 246 0.0 5.0 0.00 0.00 0.00 57 1009.3
20240716153033 89 300 0.0 1.0 0.00 0.00 0.00 59 1009.3
20240716150003 87 306 0.0 1.0 0.00 0.00 0.00 62 1009.2
20240716144603 86 235 0.0 4.0 0.00 0.00 0.00 64 1009.3
20240716143108 86 262 0.0 3.0 0.00 0.00 0.00 64 1009.3
20240716141604 84 208 0.0 3.0 0.00 0.00 0.00 66 1009.1
20240716140053 84 289 0.0 1.0 0.00 0.00 0.00 68 1009.0
20240716134552 84 288 0.0 1.0 0.00 0.00 0.00 67 1009.0